Time;durP1;ratioP1;P1;durP2;ratioP2;P2;SDS_P1;SDS_P2;PMS_P1;PMS_P2;Temp;Humidity;BMP_temperature;BMP_pressure;BME280_temperature;BME280_humidity;BME280_pressure;Samples;Min_cycle;Max_cycle;Signal;HPM_P1;HPM_P2
2023/01/05 00:02:01;;;;;;;;;;;10.50;99.90;;;;;;5054336;28;19963;-56
2023/01/05 00:04:28;;;;;;;;;;;10.50;99.90;;;;;;5054645;28;19925;-58
2023/01/05 00:06:54;;;;;;;;;;;10.50;99.90;;;;;;5054457;28;19925;-57
2023/01/05 00:09:21;;;;;;;;;;;10.50;99.90;;;;;;5054239;28;19921;-54
2023/01/05 00:22:48;;;;;;;;;;;10.50;99.90;;;;;;5059077;28;19970;-54
2023/01/05 00:25:15;;;;;;;;;;;10.50;99.90;;;;;;5065583;28;19921;-57
2023/01/05 00:27:44;;;;;;;;;;;10.50;99.90;;;;;;5073803;28;19928;-59
2023/01/05 00:30:11;;;;;;;;;;;10.50;99.90;;;;;;5073796;28;19932;-59
2023/01/05 00:32:38;;;;;;;;;;;10.50;99.90;;;;;;5073965;28;19920;-59
2023/01/05 00:35:05;;;;;;;;;;;10.60;99.90;;;;;;5073648;28;19920;-59
2023/01/05 00:37:32;;;;;;;;;;;10.50;99.90;;;;;;5073428;28;20345;-61
2023/01/05 00:39:59;;;;;;;;;;;10.50;99.90;;;;;;5073766;28;19921;-57
2023/01/05 00:42:26;;;;;;;;;;;10.50;99.90;;;;;;5073545;28;19982;-62
2023/01/05 00:44:53;;;;;;;;;;;10.50;99.90;;;;;;5073599;28;19928;-57
2023/01/05 00:47:20;;;;;;;;;;;10.50;99.90;;;;;;5073380;28;19924;-59
2023/01/05 00:49:46;;;;;;;;;;;10.50;99.90;;;;;;5073397;28;20026;-60
2023/01/05 00:52:13;;;;;;;;;;;10.50;99.90;;;;;;5072707;28;19920;-59
2023/01/05 00:54:39;;;;;;;;;;;10.50;99.90;;;;;;5061786;28;19921;-60
2023/01/05 00:57:06;;;;;;;;;;;10.50;99.90;;;;;;5052639;28;19925;-61
2023/01/05 00:59:33;;;;;;;;;;;10.50;99.90;;;;;;5053050;28;20007;-56
2023/01/05 01:02:01;;;;;;;;;;;10.50;99.90;;;;;;5053024;28;20057;-61
2023/01/05 01:04:29;;;;;;;;;;;10.50;99.90;;;;;;5053266;28;19920;-60
2023/01/05 01:06:56;;;;;;;;;;;10.50;99.90;;;;;;5053223;28;19990;-61
2023/01/05 01:09:22;;;;;;;;;;;10.50;99.90;;;;;;5053034;28;19975;-60
2023/01/05 01:11:49;;;;;;;;;;;10.50;99.90;;;;;;5053138;28;19928;-61
2023/01/05 01:14:15;;;;;;;;;;;10.40;99.90;;;;;;5052951;28;19925;-58
2023/01/05 01:16:42;;;;;;;;;;;10.40;99.90;;;;;;5052738;28;19921;-60
2023/01/05 01:19:13;;;;;;;;;;;10.40;99.90;;;;;;5052580;28;20442;-61
2023/01/05 01:21:40;;;;;;;;;;;10.40;99.90;;;;;;5053076;28;19925;-60
2023/01/05 01:24:06;;;;;;;;;;;10.40;99.90;;;;;;5060953;28;19920;-62
2023/01/05 01:26:33;;;;;;;;;;;10.40;99.90;;;;;;5072344;28;19966;-61
2023/01/05 01:28:59;;;;;;;;;;;10.40;99.90;;;;;;5072668;28;19920;-61
2023/01/05 01:31:26;;;;;;;;;;;10.40;99.90;;;;;;5072747;28;19920;-61
2023/01/05 01:33:52;;;;;;;;;;;10.40;99.90;;;;;;5072867;28;19946;-61
2023/01/05 01:36:20;;;;;;;;;;;10.40;99.90;;;;;;5072533;28;19945;-60
2023/01/05 01:38:47;;;;;;;;;;;10.40;99.90;;;;;;5072477;28;19924;-61
2023/01/05 01:41:14;;;;;;;;;;;10.40;99.90;;;;;;5072326;28;19920;-59
2023/01/05 01:43:42;;;;;;;;;;;10.40;99.90;;;;;;5072604;28;19966;-59
2023/01/05 01:46:09;;;;;;;;;;;10.50;99.90;;;;;;5072093;28;19974;-61
2023/01/05 01:48:36;;;;;;;;;;;10.40;99.90;;;;;;5072348;28;20395;-58
2023/01/05 01:51:05;;;;;;;;;;;10.40;99.90;;;;;;5072403;28;19927;-57
2023/01/05 01:53:35;;;;;;;;;;;10.40;99.90;;;;;;5064072;28;20336;-59
2023/01/05 01:56:03;;;;;;;;;;;10.40;99.90;;;;;;5056675;28;19943;-60
2023/01/05 01:58:30;;;;;;;;;;;10.40;99.90;;;;;;5052421;28;19921;-59
2023/01/05 02:00:59;;;;;;;;;;;10.40;99.90;;;;;;5051885;28;19921;-61
2023/01/05 02:03:26;;;;;;;;;;;10.30;99.90;;;;;;5052369;28;19990;-60
2023/01/05 02:05:53;;;;;;;;;;;10.30;99.90;;;;;;5052289;28;20307;-63
2023/01/05 02:08:24;;;;;;;;;;;10.30;99.90;;;;;;5052304;28;20513;-61
2023/01/05 02:10:56;;;;;;;;;;;10.30;99.90;;;;;;5052205;28;19920;-58
2023/01/05 02:13:31;;;;;;;;;;;10.30;99.90;;;;;;5052202;28;19920;-60
2023/01/05 02:16:02;;;;;;;;;;;10.30;99.90;;;;;;5052183;28;19975;-61
2023/01/05 02:18:35;;;;;;;;;;;10.30;99.90;;;;;;5051981;28;19920;-59
2023/01/05 02:21:15;;;;;;;;;;;10.30;99.90;;;;;;5051776;28;19924;-60
2023/01/05 02:24:00;;;;;;;;;;;10.30;99.90;;;;;;5060063;28;19924;-60
2023/01/05 02:26:41;;;;;;;;;;;10.20;99.90;;;;;;5070923;28;19924;-61
2023/01/05 02:29:32;;;;;;;;;;;10.30;99.90;;;;;;5058838;28;19924;-61
2023/01/05 02:32:03;;;;;;;;;;;10.20;99.90;;;;;;5015284;28;20339;-61
2023/01/05 02:34:35;;;;;;;;;;;10.20;99.90;;;;;;5071962;28;20272;-61
2023/01/05 02:37:05;;;;;;;;;;;10.20;99.90;;;;;;5072026;28;20368;-59
2023/01/05 02:39:33;;;;;;;;;;;10.20;99.90;;;;;;5071924;28;19928;-60
2023/01/05 02:42:02;;;;;;;;;;;10.20;99.90;;;;;;5072015;28;19988;-60
2023/01/05 02:44:30;;;;;;;;;;;10.20;99.90;;;;;;5071748;28;19928;-57
2023/01/05 02:47:02;;;;;;;;;;;10.20;99.90;;;;;;5071833;28;20299;-58
2023/01/05 02:49:30;;;;;;;;;;;10.10;99.90;;;;;;5071832;28;20445;-61
2023/01/05 02:51:58;;;;;;;;;;;10.10;99.90;;;;;;5071745;28;20391;-60
2023/01/05 02:54:27;;;;;;;;;;;10.10;99.90;;;;;;5061144;28;20294;-59
2023/01/05 02:56:56;;;;;;;;;;;10.10;99.90;;;;;;5051429;28;19966;-61
2023/01/05 02:59:24;;;;;;;;;;;10.10;99.90;;;;;;5051773;28;20483;-59
2023/01/05 03:01:54;;;;;;;;;;;10.10;99.90;;;;;;5051643;28;20374;-57
2023/01/05 03:04:23;;;;;;;;;;;10.10;99.90;;;;;;5051787;28;20346;-58
2023/01/05 03:06:55;;;;;;;;;;;10.10;99.90;;;;;;5051382;28;19920;-59
2023/01/05 03:09:24;;;;;;;;;;;10.00;99.90;;;;;;5051587;28;20003;-61
2023/01/05 03:14:42;;;;;;;;;;;10.10;99.90;;;;;;5051634;28;20295;-60
2023/01/05 03:17:10;;;;;;;;;;;10.10;99.90;;;;;;5051260;28;20332;-62
2023/01/05 03:19:39;;;;;;;;;;;10.10;99.90;;;;;;5052726;28;20599;-59
2023/01/05 03:36:02;;;;;;;;;;;10.00;99.90;;;;;;5054674;28;19943;-61
2023/01/05 03:38:30;;;;;;;;;;;10.00;99.90;;;;;;5054961;28;19924;-61
2023/01/05 03:40:59;;;;;;;;;;;10.00;99.90;;;;;;5054676;28;19921;-59
2023/01/05 03:43:25;;;;;;;;;;;10.00;99.90;;;;;;5054932;28;20058;-58
2023/01/05 03:45:53;;;;;;;;;;;10.00;99.90;;;;;;5054502;28;20375;-61
2023/01/05 03:48:20;;;;;;;;;;;10.00;99.90;;;;;;5054926;28;19928;-56
2023/01/05 03:50:46;;;;;;;;;;;10.00;99.90;;;;;;5054513;28;20011;-58
2023/01/05 03:53:14;;;;;;;;;;;10.00;99.90;;;;;;5062700;28;19920;-59
2023/01/05 03:55:41;;;;;;;;;;;10.00;99.90;;;;;;5067290;28;20276;-57
2023/01/05 03:58:08;;;;;;;;;;;10.00;99.90;;;;;;5074519;28;19924;-61
2023/01/05 04:00:35;;;;;;;;;;;10.00;99.90;;;;;;5074387;28;19924;-60
2023/01/05 04:03:01;;;;;;;;;;;10.00;99.90;;;;;;5074403;28;19974;-60
2023/01/05 04:05:28;;;;;;;;;;;10.00;99.90;;;;;;5074432;28;19921;-58
2023/01/05 04:07:54;;;;;;;;;;;10.00;99.90;;;;;;5074129;28;19920;-59
2023/01/05 04:10:22;;;;;;;;;;;10.00;99.90;;;;;;5074424;28;19974;-59
2023/01/05 04:12:49;;;;;;;;;;;10.00;99.90;;;;;;5074428;28;19920;-58
2023/01/05 04:15:15;;;;;;;;;;;10.00;99.90;;;;;;5074267;28;19966;-53
2023/01/05 04:17:42;;;;;;;;;;;10.00;99.90;;;;;;5073858;28;19974;-59
2023/01/05 04:20:09;;;;;;;;;;;10.00;99.90;;;;;;5073978;28;19927;-58
2023/01/05 04:22:35;;;;;;;;;;;9.90;99.90;;;;;;5070421;28;20335;-57
2023/01/05 04:25:02;;;;;;;;;;;9.90;99.90;;;;;;5062183;28;19921;-58
2023/01/05 04:27:29;;;;;;;;;;;9.90;99.90;;;;;;5053795;28;19921;-55
2023/01/05 04:29:56;;;;;;;;;;;9.90;99.90;;;;;;5053797;28;19921;-57
2023/01/05 04:32:22;;;;;;;;;;;9.90;99.90;;;;;;5052954;28;19928;-58
2023/01/05 04:34:49;;;;;;;;;;;10.00;99.90;;;;;;5053672;28;19920;-61
2023/01/05 04:37:16;;;;;;;;;;;10.00;99.90;;;;;;5053741;28;19928;-57
2023/01/05 04:39:42;;;;;;;;;;;9.90;99.90;;;;;;5053704;28;19994;-57
2023/01/05 04:42:09;;;;;;;;;;;9.90;99.90;;;;;;5053670;28;19920;-61
2023/01/05 04:44:37;;;;;;;;;;;9.90;99.90;;;;;;5053367;28;19947;-60
2023/01/05 04:47:03;;;;;;;;;;;9.90;99.90;;;;;;5053351;28;19921;-61
2023/01/05 04:49:30;;;;;;;;;;;9.90;99.90;;;;;;5053342;28;19920;-56
2023/01/05 04:51:56;;;;;;;;;;;9.90;99.90;;;;;;5053363;28;19974;-61
2023/01/05 04:54:23;;;;;;;;;;;9.90;99.90;;;;;;5061410;28;20445;-59
2023/01/05 04:56:49;;;;;;;;;;;9.90;99.90;;;;;;5053229;28;19920;-62
2023/01/05 04:59:16;;;;;;;;;;;9.90;99.90;;;;;;5052935;28;19924;-62
2023/01/05 05:01:44;;;;;;;;;;;9.90;99.90;;;;;;5053272;28;19932;-60
2023/01/05 05:04:10;;;;;;;;;;;9.90;99.90;;;;;;5053142;28;19974;-62
2023/01/05 05:06:37;;;;;;;;;;;9.90;99.90;;;;;;5052917;28;19920;-62
2023/01/05 05:09:03;;;;;;;;;;;9.90;99.90;;;;;;5053116;28;19924;-60
2023/01/05 05:11:30;;;;;;;;;;;9.90;99.90;;;;;;5053217;28;19928;-63
2023/01/05 05:13:56;;;;;;;;;;;9.90;99.90;;;;;;5053034;28;19974;-62
2023/01/05 05:16:23;;;;;;;;;;;9.90;99.90;;;;;;5052541;28;19924;-62
2023/01/05 05:18:51;;;;;;;;;;;9.90;99.90;;;;;;5052915;28;20346;-58
2023/01/05 05:21:17;;;;;;;;;;;9.80;99.90;;;;;;5052924;28;19946;-59
2023/01/05 05:23:44;;;;;;;;;;;9.80;99.90;;;;;;5060744;28;19925;-60
2023/01/05 05:26:10;;;;;;;;;;;9.80;99.90;;;;;;5069304;28;19966;-61
2023/01/05 05:28:37;;;;;;;;;;;9.80;99.90;;;;;;5072654;28;20014;-60
2023/01/05 05:31:03;;;;;;;;;;;9.70;99.90;;;;;;5072644;28;19966;-60
2023/01/05 05:33:30;;;;;;;;;;;9.70;99.90;;;;;;5072893;28;19973;-59
2023/01/05 05:35:58;;;;;;;;;;;9.60;99.90;;;;;;5072598;28;20288;-61
2023/01/05 05:38:24;;;;;;;;;;;9.60;99.90;;;;;;5072628;28;19927;-60
2023/01/05 05:40:51;;;;;;;;;;;9.60;99.90;;;;;;5072475;28;19974;-61
2023/01/05 05:43:17;;;;;;;;;;;9.50;99.90;;;;;;5071759;28;19966;-59
2023/01/05 05:45:44;;;;;;;;;;;9.50;99.90;;;;;;5065978;28;20371;-60
2023/01/05 05:48:10;;;;;;;;;;;9.50;99.90;;;;;;5060250;28;20023;-62
2023/01/05 05:50:38;;;;;;;;;;;9.50;99.90;;;;;;5063837;28;19920;-60
2023/01/05 05:53:06;;;;;;;;;;;9.50;99.90;;;;;;5063848;28;19921;-62
2023/01/05 05:55:33;;;;;;;;;;;9.50;99.90;;;;;;5060079;28;19951;-62
2023/01/05 05:58:00;;;;;;;;;;;9.50;99.90;;;;;;5060031;28;19925;-62
2023/01/05 06:00:26;;;;;;;;;;;9.50;99.90;;;;;;5051757;28;19971;-60
2023/01/05 06:02:53;;;;;;;;;;;9.50;99.90;;;;;;5052156;28;19981;-61
2023/01/05 06:05:19;;;;;;;;;;;9.50;99.90;;;;;;5051669;28;19921;-60
2023/01/05 06:07:46;;;;;;;;;;;9.50;99.90;;;;;;5051858;28;19921;-62
2023/01/05 06:10:14;;;;;;;;;;;9.50;99.90;;;;;;5051945;28;19929;-59
2023/01/05 06:12:40;;;;;;;;;;;9.40;99.90;;;;;;5051643;28;19990;-59
2023/01/05 06:15:07;;;;;;;;;;;9.40;99.90;;;;;;5051802;28;20429;-60
2023/01/05 06:17:34;;;;;;;;;;;9.40;99.90;;;;;;5051190;28;19921;-61
2023/01/05 06:20:00;;;;;;;;;;;9.40;99.90;;;;;;5059945;28;19928;-62
2023/01/05 06:22:27;;;;;;;;;;;9.40;99.90;;;;;;5068019;28;19928;-60
2023/01/05 06:24:54;;;;;;;;;;;9.40;99.90;;;;;;5059982;28;19924;-61
2023/01/05 06:27:22;;;;;;;;;;;9.40;99.90;;;;;;5057265;28;20011;-59
2023/01/05 06:29:48;;;;;;;;;;;9.40;99.90;;;;;;5051667;28;19924;-61
2023/01/05 06:32:15;;;;;;;;;;;9.40;99.90;;;;;;5051645;28;19924;-61
2023/01/05 06:34:41;;;;;;;;;;;9.40;99.90;;;;;;5047273;28;20480;-62
2023/01/05 06:37:08;;;;;;;;;;;9.40;99.90;;;;;;5053498;28;19928;-62
2023/01/05 06:39:35;;;;;;;;;;;9.40;99.90;;;;;;5058773;28;19921;-65
2023/01/05 06:42:01;;;;;;;;;;;9.30;99.90;;;;;;5058965;28;19921;-64
2023/01/05 06:44:29;;;;;;;;;;;9.30;99.90;;;;;;5070323;28;19950;-64
2023/01/05 06:46:56;;;;;;;;;;;9.30;99.90;;;;;;5062138;28;19982;-62
2023/01/05 06:49:22;;;;;;;;;;;9.30;99.90;;;;;;5052922;28;19975;-62
2023/01/05 06:51:49;;;;;;;;;;;9.30;99.90;;;;;;5050414;28;19920;-62
2023/01/05 06:54:15;;;;;;;;;;;9.30;99.90;;;;;;5060883;28;19921;-62
2023/01/05 06:56:42;;;;;;;;;;;9.30;99.90;;;;;;5073968;28;19924;-62
2023/01/05 06:59:12;;;;;;;;;;;9.30;99.90;;;;;;5074954;28;19966;-63
2023/01/05 07:01:40;;;;;;;;;;;9.30;99.90;;;;;;5066494;28;19967;-62
2023/01/05 07:04:06;;;;;;;;;;;9.30;99.90;;;;;;5057934;28;19924;-63
2023/01/05 07:06:34;;;;;;;;;;;9.30;99.90;;;;;;5062134;28;19974;-59
2023/01/05 07:09:00;;;;;;;;;;;9.30;99.90;;;;;;5062545;28;19920;-62
2023/01/05 07:11:27;;;;;;;;;;;9.20;99.90;;;;;;5055038;28;19920;-63
2023/01/05 07:13:54;;;;;;;;;;;9.20;99.90;;;;;;5054349;28;19931;-65
2023/01/05 07:16:20;;;;;;;;;;;9.30;99.90;;;;;;5053765;28;20338;-61
2023/01/05 07:18:48;;;;;;;;;;;9.30;99.90;;;;;;5054640;28;19921;-60
2023/01/05 07:21:14;;;;;;;;;;;9.20;99.90;;;;;;5053961;28;19928;-61
2023/01/05 07:23:41;;;;;;;;;;;9.30;99.90;;;;;;5062567;28;19975;-59
2023/01/05 07:26:08;;;;;;;;;;;9.20;99.90;;;;;;5069599;28;19974;-61
2023/01/05 07:28:35;;;;;;;;;;;9.20;99.90;;;;;;5074086;28;19920;-59
2023/01/05 07:31:02;;;;;;;;;;;9.20;99.90;;;;;;5062654;28;19963;-60
2023/01/05 07:33:28;;;;;;;;;;;9.20;99.90;;;;;;5053597;28;19927;-61
2023/01/05 07:36:00;;;;;;;;;;;9.20;99.90;;;;;;5053150;28;19975;-62
2023/01/05 07:38:26;;;;;;;;;;;9.30;99.90;;;;;;5053175;28;19928;-60
2023/01/05 07:40:53;;;;;;;;;;;9.30;99.90;;;;;;5054226;28;19935;-66
2023/01/05 07:43:19;;;;;;;;;;;9.30;99.90;;;;;;5054122;28;19970;-64
2023/01/05 07:45:47;;;;;;;;;;;9.30;99.90;;;;;;5053341;28;20405;-67
2023/01/05 07:48:13;;;;;;;;;;;9.30;99.90;;;;;;5053403;28;19929;-66
2023/01/05 07:50:40;;;;;;;;;;;9.40;99.90;;;;;;5053974;28;19921;-67
2023/01/05 07:53:08;;;;;;;;;;;9.30;99.90;;;;;;5061752;28;19973;-64
2023/01/05 07:55:34;;;;;;;;;;;9.30;99.90;;;;;;5056867;28;19927;-63
2023/01/05 07:58:01;;;;;;;;;;;9.40;99.90;;;;;;5074083;28;19966;-65
2023/01/05 08:00:28;;;;;;;;;;;9.30;99.90;;;;;;5074086;28;19928;-65
2023/01/05 08:02:56;;;;;;;;;;;9.40;99.90;;;;;;5073645;28;19927;-66
2023/01/05 08:05:22;;;;;;;;;;;9.40;99.90;;;;;;5063113;28;19924;-65
2023/01/05 08:07:49;;;;;;;;;;;9.30;99.90;;;;;;5053501;28;19928;-65
2023/01/05 08:10:28;;;;;;;;;;;9.40;99.90;;;;;;5053656;28;19920;-65
2023/01/05 08:15:39;;;;;;;;;;;9.40;99.90;;;;;;5052978;28;20032;-65
2023/01/05 08:18:06;;;;;;;;;;;9.40;99.90;;;;;;5053547;28;19920;-64
2023/01/05 08:20:32;;;;;;;;;;;9.40;99.90;;;;;;5053669;28;19924;-65
2023/01/05 08:22:59;;;;;;;;;;;9.40;99.90;;;;;;5061036;28;19974;-65
2023/01/05 08:25:27;;;;;;;;;;;9.40;99.90;;;;;;5064576;28;19920;-65
2023/01/05 08:27:53;;;;;;;;;;;9.40;99.90;;;;;;5072803;28;20003;-63
2023/01/05 08:30:20;;;;;;;;;;;9.40;99.90;;;;;;5068133;28;19920;-67
2023/01/05 08:32:46;;;;;;;;;;;9.40;99.90;;;;;;5050870;28;19966;-64
2023/01/05 08:35:13;;;;;;;;;;;9.40;99.90;;;;;;5064928;28;19928;-65
2023/01/05 08:37:40;;;;;;;;;;;9.40;99.90;;;;;;5053638;28;19921;-66
2023/01/05 08:40:07;;;;;;;;;;;9.40;99.90;;;;;;5052992;28;19920;-67
2023/01/05 08:42:35;;;;;;;;;;;9.40;99.90;;;;;;5052360;28;20277;-67
2023/01/05 08:45:02;;;;;;;;;;;9.50;99.90;;;;;;5052996;28;20375;-67
2023/01/05 08:47:28;;;;;;;;;;;9.50;99.90;;;;;;5052499;28;19924;-56
2023/01/05 08:49:55;;;;;;;;;;;9.50;99.90;;;;;;5052561;28;19967;-65
2023/01/05 08:52:22;;;;;;;;;;;9.40;99.90;;;;;;5054428;28;20269;-62
2023/01/05 08:54:48;;;;;;;;;;;9.50;99.90;;;;;;5063720;28;20023;-62
2023/01/05 08:57:15;;;;;;;;;;;9.50;99.90;;;;;;5063468;28;20284;-61
2023/01/05 08:59:43;;;;;;;;;;;9.50;99.90;;;;;;5059417;28;19925;-61
2023/01/05 09:02:10;;;;;;;;;;;9.60;99.90;;;;;;5052471;28;19921;-62
2023/01/05 09:04:37;;;;;;;;;;;9.60;99.90;;;;;;5052867;28;19921;-61
2023/01/05 09:07:03;;;;;;;;;;;9.60;99.90;;;;;;5051958;28;20450;-61
2023/01/05 09:09:30;;;;;;;;;;;9.60;99.90;;;;;;5052696;28;20054;-61
2023/01/05 09:11:56;;;;;;;;;;;9.60;99.90;;;;;;5052340;28;19928;-61
2023/01/05 09:14:23;;;;;;;;;;;9.60;99.90;;;;;;5052436;28;20394;-61
2023/01/05 09:16:51;;;;;;;;;;;9.60;99.90;;;;;;5051450;28;19925;-62
2023/01/05 09:19:17;;;;;;;;;;;9.60;99.90;;;;;;5052157;28;19921;-61
2023/01/05 09:21:44;;;;;;;;;;;9.60;99.90;;;;;;5052568;28;19975;-62
2023/01/05 09:24:12;;;;;;;;;;;9.60;99.90;;;;;;5060116;28;19925;-61
2023/01/05 09:26:38;;;;;;;;;;;9.70;99.90;;;;;;5071718;28;20015;-61
2023/01/05 09:29:05;;;;;;;;;;;9.70;99.90;;;;;;5072004;28;19924;-61
2023/01/05 09:31:31;;;;;;;;;;;9.70;99.90;;;;;;5071760;28;19920;-61
2023/01/05 09:33:59;;;;;;;;;;;9.70;99.90;;;;;;5071538;28;19965;-61
2023/01/05 09:36:26;;;;;;;;;;;9.80;99.90;;;;;;5071051;28;19924;-62
2023/01/05 09:38:54;;;;;;;;;;;9.80;99.90;;;;;;5072252;28;19924;-62
2023/01/05 09:41:23;;;;;;;;;;;9.80;99.90;;;;;;5071423;28;20046;-62
2023/01/05 09:43:51;;;;;;;;;;;9.80;99.90;;;;;;5072044;28;19927;-60
2023/01/05 09:46:20;;;;;;;;;;;9.80;99.90;;;;;;5071147;28;19920;-61
2023/01/05 09:48:50;;;;;;;;;;;9.90;99.90;;;;;;5071723;28;19920;-60
2023/01/05 09:51:18;;;;;;;;;;;9.90;99.90;;;;;;5071570;28;19924;-67
2023/01/05 09:53:45;;;;;;;;;;;9.90;99.90;;;;;;5062944;28;19924;-65
2023/01/05 09:56:17;;;;;;;;;;;9.90;99.90;;;;;;5071414;28;19924;-64
2023/01/05 09:58:45;;;;;;;;;;;9.90;99.90;;;;;;5062823;28;20314;-65
2023/01/05 10:01:13;;;;;;;;;;;9.90;99.90;;;;;;5054711;28;20007;-65
2023/01/05 10:03:41;;;;;;;;;;;9.90;99.90;;;;;;5051959;28;19924;-66
2023/01/05 10:06:11;;;;;;;;;;;9.90;99.90;;;;;;5047856;28;20019;-65
2023/01/05 10:08:40;;;;;;;;;;;9.90;99.90;;;;;;5050956;28;20284;-65
2023/01/05 10:13:57;;;;;;;;;;;9.90;99.90;;;;;;5051162;28;19963;-64
2023/01/05 10:16:24;;;;;;;;;;;9.90;99.90;;;;;;5050418;28;19921;-64
2023/01/05 10:18:51;;;;;;;;;;;10.00;99.90;;;;;;5050995;28;20342;-64
2023/01/05 10:21:25;;;;;;;;;;;10.00;99.90;;;;;;5051267;28;20012;-63
2023/01/05 10:23:58;;;;;;;;;;;10.00;99.90;;;;;;5059133;28;19921;-64
2023/01/05 10:26:28;;;;;;;;;;;10.00;99.90;;;;;;5069220;28;19932;-62
2023/01/05 10:28:58;;;;;;;;;;;10.00;99.90;;;;;;5072593;28;19944;-64
2023/01/05 10:31:29;;;;;;;;;;;10.00;99.90;;;;;;5075047;28;19931;-63
2023/01/05 10:33:58;;;;;;;;;;;10.10;99.90;;;;;;5075306;28;20441;-63
2023/01/05 10:36:32;;;;;;;;;;;10.10;99.90;;;;;;5074252;28;19924;-61
2023/01/05 10:39:03;;;;;;;;;;;10.20;99.90;;;;;;5075142;28;19924;-60
2023/01/05 10:41:33;;;;;;;;;;;10.20;99.90;;;;;;5074190;28;19924;-63
2023/01/05 10:44:07;;;;;;;;;;;10.20;99.90;;;;;;5075204;28;19974;-63
2023/01/05 10:46:34;;;;;;;;;;;10.20;99.90;;;;;;5072296;28;19920;-61
2023/01/05 10:49:01;;;;;;;;;;;10.30;99.90;;;;;;5063060;28;19920;-61
2023/01/05 10:51:31;;;;;;;;;;;10.30;99.90;;;;;;5073930;28;19924;-63
2023/01/05 10:53:58;;;;;;;;;;;10.30;99.90;;;;;;5065772;28;19924;-60
2023/01/05 10:56:28;;;;;;;;;;;10.30;99.90;;;;;;5055662;28;19929;-63
2023/01/05 10:59:06;;;;;;;;;;;10.30;99.90;;;;;;5054043;28;19959;-63
2023/01/05 11:01:33;;;;;;;;;;;10.30;99.90;;;;;;5055098;28;20289;-61
2023/01/05 11:04:03;;;;;;;;;;;10.30;99.90;;;;;;5054412;28;20426;-60
2023/01/05 11:06:32;;;;;;;;;;;10.30;99.90;;;;;;5053459;28;20603;-64
2023/01/05 11:09:05;;;;;;;;;;;10.30;99.90;;;;;;5055397;28;20295;-61
2023/01/05 11:11:34;;;;;;;;;;;10.30;99.90;;;;;;5049292;28;19926;-64
2023/01/05 11:14:00;;;;;;;;;;;10.30;99.90;;;;;;5059205;28;19975;-61
2023/01/05 11:16:28;;;;;;;;;;;10.30;99.90;;;;;;5053211;28;19966;-63
2023/01/05 11:18:57;;;;;;;;;;;10.30;99.90;;;;;;5053984;28;20019;-64
2023/01/05 11:21:24;;;;;;;;;;;10.30;99.90;;;;;;5054694;28;19925;-61
2023/01/05 11:23:51;;;;;;;;;;;10.40;99.90;;;;;;5065620;28;20299;-64
2023/01/05 11:26:23;;;;;;;;;;;10.30;99.90;;;;;;5062552;28;20360;-58
2023/01/05 11:29:08;;;;;;;;;;;10.40;99.90;;;;;;5073796;28;20058;-60
2023/01/05 11:31:41;;;;;;;;;;;10.40;99.90;;;;;;5074046;28;19921;-62
2023/01/05 11:34:14;;;;;;;;;;;10.40;99.90;;;;;;5073392;28;19920;-62
2023/01/05 11:36:41;;;;;;;;;;;10.40;99.90;;;;;;5073485;28;19924;-59
2023/01/05 11:39:17;;;;;;;;;;;10.40;99.90;;;;;;5057086;28;19927;-61
2023/01/05 11:41:43;;;;;;;;;;;10.40;99.90;;;;;;5045755;28;20338;-60
2023/01/05 11:44:14;;;;;;;;;;;10.40;99.90;;;;;;5053510;28;20585;-59
2023/01/05 11:46:43;;;;;;;;;;;10.40;99.90;;;;;;5052419;28;20384;-58
2023/01/05 11:49:10;;;;;;;;;;;10.40;99.90;;;;;;5053704;28;20383;-62
2023/01/05 11:51:37;;;;;;;;;;;10.40;99.90;;;;;;5053365;28;19987;-63
2023/01/05 11:54:04;;;;;;;;;;;10.40;99.90;;;;;;5061993;28;19975;-62
2023/01/05 11:56:31;;;;;;;;;;;10.40;99.90;;;;;;5072402;28;19924;-63
2023/01/05 11:58:58;;;;;;;;;;;10.40;99.90;;;;;;5073495;28;19927;-62
2023/01/05 12:01:43;;;;;;;;;;;10.30;99.90;;;;;;5065404;28;19990;-59
2023/01/05 12:04:18;;;;;;;;;;;10.40;99.90;;;;;;5056214;28;19921;-61
2023/01/05 12:06:51;;;;;;;;;;;10.40;99.90;;;;;;5053377;28;19982;-67
2023/01/05 12:09:21;;;;;;;;;;;10.40;99.90;;;;;;5053258;28;19929;-66
2023/01/05 12:11:53;;;;;;;;;;;10.40;99.90;;;;;;5054031;28;19974;-67
2023/01/05 12:14:25;;;;;;;;;;;10.60;99.90;;;;;;5053196;28;19921;-68
2023/01/05 12:16:53;;;;;;;;;;;10.70;99.90;;;;;;5052979;28;19920;-68
2023/01/05 12:19:36;;;;;;;;;;;10.80;99.90;;;;;;5061416;28;19921;-66
2023/01/05 12:22:15;;;;;;;;;;;10.70;99.90;;;;;;5069118;28;19998;-66
2023/01/05 12:24:50;;;;;;;;;;;10.70;99.90;;;;;;5054633;28;19979;-66
2023/01/05 12:27:24;;;;;;;;;;;10.70;99.90;;;;;;5052808;28;19924;-66
2023/01/05 12:29:59;;;;;;;;;;;10.80;99.90;;;;;;5053258;28;19967;-66
2023/01/05 12:32:31;;;;;;;;;;;10.70;99.90;;;;;;5052959;28;19921;-67
2023/01/05 12:35:10;;;;;;;;;;;10.70;99.90;;;;;;5053427;28;19967;-64
2023/01/05 12:37:42;;;;;;;;;;;10.70;99.90;;;;;;5051967;28;20383;-60
2023/01/05 12:40:17;;;;;;;;;;;10.70;99.90;;;;;;5052997;28;20082;-63
2023/01/05 12:42:56;;;;;;;;;;;10.70;99.90;;;;;;5052845;28;19925;-64
2023/01/05 12:45:33;;;;;;;;;;;10.70;99.90;;;;;;5053166;28;19921;-63
2023/01/05 12:48:01;;;;;;;;;;;10.70;99.90;;;;;;5052149;28;20283;-64
2023/01/05 12:50:32;;;;;;;;;;;10.70;99.90;;;;;;5052711;28;19943;-63
2023/01/05 12:53:01;;;;;;;;;;;10.70;99.90;;;;;;5058386;28;19928;-63
2023/01/05 12:55:29;;;;;;;;;;;10.70;99.90;;;;;;5064323;28;19920;-65
2023/01/05 12:57:59;;;;;;;;;;;10.70;99.90;;;;;;5072124;28;19920;-59
2023/01/05 13:00:28;;;;;;;;;;;10.80;99.90;;;;;;5069582;28;20415;-60
2023/01/05 13:02:56;;;;;;;;;;;10.90;99.90;;;;;;5060673;28;19975;-60
2023/01/05 13:05:26;;;;;;;;;;;11.00;99.90;;;;;;5052202;28;19921;-58
2023/01/05 13:07:56;;;;;;;;;;;11.10;99.90;;;;;;5052390;28;19947;-64
2023/01/05 13:10:25;;;;;;;;;;;11.20;99.90;;;;;;5051944;28;20391;-61
2023/01/05 13:12:59;;;;;;;;;;;11.20;99.90;;;;;;5052825;28;19925;-63
2023/01/05 13:15:29;;;;;;;;;;;11.20;99.90;;;;;;5052549;28;20372;-63
2023/01/05 13:17:57;;;;;;;;;;;11.30;99.90;;;;;;5051596;28;19932;-62
2023/01/05 13:20:28;;;;;;;;;;;11.20;99.90;;;;;;5052180;28;19924;-62
2023/01/05 13:22:59;;;;;;;;;;;11.20;99.90;;;;;;5057868;28;19920;-60
2023/01/05 13:25:29;;;;;;;;;;;11.10;99.90;;;;;;5063769;28;19920;-63
2023/01/05 13:27:55;;;;;;;;;;;11.20;99.90;;;;;;5071130;28;20440;-62
2023/01/05 13:30:24;;;;;;;;;;;11.20;99.90;;;;;;5071867;28;20295;-62
2023/01/05 13:33:04;;;;;;;;;;;11.20;99.90;;;;;;5058788;28;19924;-63
2023/01/05 13:35:36;;;;;;;;;;;11.20;99.90;;;;;;5062182;28;19943;-63
2023/01/05 13:38:30;;;;;;;;;;;11.10;99.90;;;;;;5066708;28;19928;-63
2023/01/05 13:41:05;;;;;;;;;;;11.00;99.90;;;;;;5072210;28;20331;-63
2023/01/05 13:43:44;;;;;;;;;;;11.00;99.90;;;;;;5071930;28;19924;-63
2023/01/05 13:46:17;;;;;;;;;;;10.90;99.90;;;;;;5071481;28;20378;-62
2023/01/05 13:48:55;;;;;;;;;;;10.90;99.90;;;;;;5067162;28;19927;-59
2023/01/05 13:51:32;;;;;;;;;;;10.90;99.90;;;;;;5059413;28;19970;-63
2023/01/05 13:54:03;;;;;;;;;;;10.90;99.90;;;;;;5060269;28;19921;-64
2023/01/05 13:56:30;;;;;;;;;;;10.90;99.90;;;;;;5070300;28;19924;-65
2023/01/05 13:58:59;;;;;;;;;;;10.80;99.90;;;;;;5071606;28;19993;-63
2023/01/05 14:01:33;;;;;;;;;;;10.80;99.90;;;;;;5071487;28;19998;-63
2023/01/05 14:04:01;;;;;;;;;;;10.80;99.90;;;;;;5071758;28;20329;-65
2023/01/05 14:06:28;;;;;;;;;;;10.80;99.90;;;;;;5070953;28;20007;-61
2023/01/05 14:08:57;;;;;;;;;;;10.80;99.90;;;;;;5065127;28;19924;-61
2023/01/05 14:11:26;;;;;;;;;;;10.80;99.90;;;;;;5051482;28;19920;-62
2023/01/05 14:13:54;;;;;;;;;;;10.80;99.90;;;;;;5050974;28;19967;-60
2023/01/05 14:16:41;;;;;;;;;;;10.70;99.90;;;;;;5050671;28;19927;-61
2023/01/05 14:19:12;;;;;;;;;;;10.70;99.90;;;;;;5050455;28;19932;-64
2023/01/05 14:21:43;;;;;;;;;;;10.60;99.90;;;;;;5031479;28;20376;-67
2023/01/05 14:24:26;;;;;;;;;;;10.60;99.90;;;;;;5055983;28;19947;-62
2023/01/05 14:27:01;;;;;;;;;;;10.50;99.90;;;;;;5071160;28;19982;-64
2023/01/05 14:29:46;;;;;;;;;;;10.50;99.90;;;;;;5071017;28;20295;-64
2023/01/05 14:32:13;;;;;;;;;;;10.50;99.90;;;;;;5061134;28;20284;-65
2023/01/05 14:34:45;;;;;;;;;;;10.50;99.90;;;;;;5061935;28;19921;-62
2023/01/05 14:37:18;;;;;;;;;;;10.50;99.90;;;;;;5060758;28;19966;-62
2023/01/05 14:39:45;;;;;;;;;;;10.50;99.90;;;;;;5058966;28;20165;-62
2023/01/05 14:42:18;;;;;;;;;;;10.50;99.90;;;;;;5058493;28;19920;-61
2023/01/05 14:44:48;;;;;;;;;;;10.40;99.90;;;;;;5062110;28;19920;-62
2023/01/05 14:47:15;;;;;;;;;;;10.40;99.90;;;;;;5060388;28;19948;-64
2023/01/05 14:49:43;;;;;;;;;;;10.30;99.90;;;;;;5057536;28;20295;-65
2023/01/05 14:52:15;;;;;;;;;;;10.30;99.90;;;;;;5062376;28;19998;-72
2023/01/05 14:55:00;;;;;;;;;;;10.30;99.90;;;;;;5059736;28;19925;-62
2023/01/05 14:57:48;;;;;;;;;;;10.20;99.90;;;;;;5050718;28;20354;-62
2023/01/05 15:00:16;;;;;;;;;;;10.20;99.90;;;;;;5051416;28;19928;-60
2023/01/05 15:02:46;;;;;;;;;;;10.10;99.90;;;;;;5051265;28;19975;-61
2023/01/05 15:05:15;;;;;;;;;;;10.10;99.90;;;;;;5051166;28;20334;-63